sensor_id;sensor_type;location;lat;lon;timestamp;temperature;humidity
67529;DHT22;54366;51.980;5.856;2023-10-09T00:01:06;15.30;82.60
67529;DHT22;54366;51.980;5.856;2023-10-09T00:03:43;15.30;82.60
67529;DHT22;54366;51.980;5.856;2023-10-09T00:06:10;15.30;82.60
67529;DHT22;54366;51.980;5.856;2023-10-09T00:08:39;15.30;82.70
67529;DHT22;54366;51.980;5.856;2023-10-09T00:11:11;15.30;82.70
67529;DHT22;54366;51.980;5.856;2023-10-09T00:13:44;15.30;82.80
67529;DHT22;54366;51.980;5.856;2023-10-09T00:16:25;15.30;82.90
67529;DHT22;54366;51.980;5.856;2023-10-09T00:19:02;15.30;82.90
67529;DHT22;54366;51.980;5.856;2023-10-09T00:21:41;15.30;82.80
67529;DHT22;54366;51.980;5.856;2023-10-09T00:24:07;15.30;82.80
67529;DHT22;54366;51.980;5.856;2023-10-09T00:26:40;15.30;82.80
67529;DHT22;54366;51.980;5.856;2023-10-09T00:29:14;15.30;82.80
67529;DHT22;54366;51.980;5.856;2023-10-09T00:31:56;15.30;82.80
67529;DHT22;54366;51.980;5.856;2023-10-09T00:34:41;15.30;82.90
67529;DHT22;54366;51.980;5.856;2023-10-09T00:37:08;15.20;82.90
67529;DHT22;54366;51.980;5.856;2023-10-09T00:39:43;15.30;82.90
67529;DHT22;54366;51.980;5.856;2023-10-09T00:42:11;15.30;83.00
67529;DHT22;54366;51.980;5.856;2023-10-09T00:44:41;15.30;83.00
67529;DHT22;54366;51.980;5.856;2023-10-09T00:47:12;15.30;83.20
67529;DHT22;54366;51.980;5.856;2023-10-09T00:49:57;15.20;83.10
67529;DHT22;54366;51.980;5.856;2023-10-09T00:52:29;15.30;83.20
67529;DHT22;54366;51.980;5.856;2023-10-09T00:55:04;15.20;83.10
67529;DHT22;54366;51.980;5.856;2023-10-09T00:57:37;15.20;83.10
67529;DHT22;54366;51.980;5.856;2023-10-09T01:00:04;15.20;83.20
67529;DHT22;54366;51.980;5.856;2023-10-09T01:02:39;15.20;83.20
67529;DHT22;54366;51.980;5.856;2023-10-09T01:05:09;15.10;83.20
67529;DHT22;54366;51.980;5.856;2023-10-09T01:07:47;15.20;83.30
67529;DHT22;54366;51.980;5.856;2023-10-09T01:10:14;15.10;83.20
67529;DHT22;54366;51.980;5.856;2023-10-09T01:12:42;15.10;83.20
67529;DHT22;54366;51.980;5.856;2023-10-09T01:15:11;15.20;83.30
67529;DHT22;54366;51.980;5.856;2023-10-09T01:18:00;15.20;83.30
67529;DHT22;54366;51.980;5.856;2023-10-09T01:20:27;15.20;83.30
67529;DHT22;54366;51.980;5.856;2023-10-09T01:23:01;15.20;83.30
67529;DHT22;54366;51.980;5.856;2023-10-09T01:25:27;15.20;83.40
67529;DHT22;54366;51.980;5.856;2023-10-09T01:28:08;15.20;83.40
67529;DHT22;54366;51.980;5.856;2023-10-09T01:30:34;15.20;83.40
67529;DHT22;54366;51.980;5.856;2023-10-09T01:33:00;15.20;83.50
67529;DHT22;54366;51.980;5.856;2023-10-09T01:35:38;15.30;83.50
67529;DHT22;54366;51.980;5.856;2023-10-09T01:38:15;15.30;83.50
67529;DHT22;54366;51.980;5.856;2023-10-09T01:40:41;15.30;83.50
67529;DHT22;54366;51.980;5.856;2023-10-09T01:43:10;15.30;83.50
67529;DHT22;54366;51.980;5.856;2023-10-09T01:45:37;15.30;83.50
67529;DHT22;54366;51.980;5.856;2023-10-09T01:48:18;15.30;83.60
67529;DHT22;54366;51.980;5.856;2023-10-09T01:50:49;15.30;83.60
67529;DHT22;54366;51.980;5.856;2023-10-09T01:53:16;15.30;83.60
67529;DHT22;54366;51.980;5.856;2023-10-09T01:55:48;15.40;83.60
67529;DHT22;54366;51.980;5.856;2023-10-09T01:58:21;15.40;83.60
67529;DHT22;54366;51.980;5.856;2023-10-09T02:00:53;15.40;83.60
67529;DHT22;54366;51.980;5.856;2023-10-09T02:03:23;15.40;84.20
67529;DHT22;54366;51.980;5.856;2023-10-09T02:05:50;15.40;83.70
67529;DHT22;54366;51.980;5.856;2023-10-09T02:08:17;15.40;83.70
67529;DHT22;54366;51.980;5.856;2023-10-09T02:10:48;15.40;83.70
67529;DHT22;54366;51.980;5.856;2023-10-09T02:13:15;15.40;83.70
67529;DHT22;54366;51.980;5.856;2023-10-09T02:15:43;15.40;83.80
67529;DHT22;54366;51.980;5.856;2023-10-09T02:18:17;15.50;83.80
67529;DHT22;54366;51.980;5.856;2023-10-09T02:21:07;15.40;83.80
67529;DHT22;54366;51.980;5.856;2023-10-09T02:23:42;15.50;83.90
67529;DHT22;54366;51.980;5.856;2023-10-09T02:26:13;15.50;83.90
67529;DHT22;54366;51.980;5.856;2023-10-09T02:28:55;15.50;84.00
67529;DHT22;54366;51.980;5.856;2023-10-09T02:31:27;15.50;84.00
67529;DHT22;54366;51.980;5.856;2023-10-09T02:34:01;15.50;84.00
67529;DHT22;54366;51.980;5.856;2023-10-09T02:36:34;15.50;84.10
67529;DHT22;54366;51.980;5.856;2023-10-09T02:39:04;15.50;84.10
67529;DHT22;54366;51.980;5.856;2023-10-09T02:41:32;15.50;84.10
67529;DHT22;54366;51.980;5.856;2023-10-09T02:44:00;15.50;84.10
67529;DHT22;54366;51.980;5.856;2023-10-09T02:46:36;15.50;84.20
67529;DHT22;54366;51.980;5.856;2023-10-09T02:49:02;15.50;84.20
67529;DHT22;54366;51.980;5.856;2023-10-09T02:51:32;15.60;84.30
67529;DHT22;54366;51.980;5.856;2023-10-09T02:54:00;15.60;84.30
67529;DHT22;54366;51.980;5.856;2023-10-09T02:56:35;15.60;84.90
67529;DHT22;54366;51.980;5.856;2023-10-09T02:59:24;15.60;84.30
67529;DHT22;54366;51.980;5.856;2023-10-09T03:01:51;15.60;84.90
67529;DHT22;54366;51.980;5.856;2023-10-09T03:04:18;15.60;84.30
67529;DHT22;54366;51.980;5.856;2023-10-09T03:06:46;15.60;84.30
67529;DHT22;54366;51.980;5.856;2023-10-09T03:09:19;15.60;84.30
67529;DHT22;54366;51.980;5.856;2023-10-09T03:11:55;15.60;84.40
67529;DHT22;54366;51.980;5.856;2023-10-09T03:14:31;15.60;84.40
67529;DHT22;54366;51.980;5.856;2023-10-09T03:16:58;15.60;84.50
67529;DHT22;54366;51.980;5.856;2023-10-09T03:19:29;15.60;84.50
67529;DHT22;54366;51.980;5.856;2023-10-09T03:21:56;15.60;84.50
67529;DHT22;54366;51.980;5.856;2023-10-09T03:24:26;15.60;84.50
67529;DHT22;54366;51.980;5.856;2023-10-09T03:26:58;15.60;84.50
67529;DHT22;54366;51.980;5.856;2023-10-09T03:29:25;15.70;84.60
67529;DHT22;54366;51.980;5.856;2023-10-09T03:31:51;15.70;84.70
67529;DHT22;54366;51.980;5.856;2023-10-09T03:34:17;15.70;84.60
67529;DHT22;54366;51.980;5.856;2023-10-09T03:36:45;15.70;84.60
67529;DHT22;54366;51.980;5.856;2023-10-09T03:39:14;15.70;84.60
67529;DHT22;54366;51.980;5.856;2023-10-09T03:41:59;15.70;84.60
67529;DHT22;54366;51.980;5.856;2023-10-09T03:44:26;15.70;84.50
67529;DHT22;54366;51.980;5.856;2023-10-09T03:46:56;15.70;84.50
67529;DHT22;54366;51.980;5.856;2023-10-09T03:49:22;15.70;84.60
67529;DHT22;54366;51.980;5.856;2023-10-09T03:51:52;15.70;84.60
67529;DHT22;54366;51.980;5.856;2023-10-09T03:54:19;15.80;84.70
67529;DHT22;54366;51.980;5.856;2023-10-09T03:56:47;15.70;84.70
67529;DHT22;54366;51.980;5.856;2023-10-09T03:59:17;15.70;84.70
67529;DHT22;54366;51.980;5.856;2023-10-09T04:01:46;15.80;84.80
67529;DHT22;54366;51.980;5.856;2023-10-09T04:04:14;15.80;84.80
67529;DHT22;54366;51.980;5.856;2023-10-09T04:06:41;15.80;84.80
67529;DHT22;54366;51.980;5.856;2023-10-09T04:09:09;15.70;84.70
67529;DHT22;54366;51.980;5.856;2023-10-09T04:11:55;15.80;84.50
67529;DHT22;54366;51.980;5.856;2023-10-09T04:14:50;15.80;84.50
67529;DHT22;54366;51.980;5.856;2023-10-09T04:17:21;15.80;84.30
67529;DHT22;54366;51.980;5.856;2023-10-09T04:20:03;15.80;84.30
67529;DHT22;54366;51.980;5.856;2023-10-09T04:23:03;15.80;84.40
67529;DHT22;54366;51.980;5.856;2023-10-09T04:25:32;15.90;84.40
67529;DHT22;54366;51.980;5.856;2023-10-09T04:28:09;15.90;84.30
67529;DHT22;54366;51.980;5.856;2023-10-09T04:30:36;15.90;84.20
67529;DHT22;54366;51.980;5.856;2023-10-09T04:33:06;16.00;84.80
67529;DHT22;54366;51.980;5.856;2023-10-09T04:35:51;16.00;84.30
67529;DHT22;54366;51.980;5.856;2023-10-09T04:38:37;16.00;84.20
67529;DHT22;54366;51.980;5.856;2023-10-09T04:41:07;16.10;84.20
67529;DHT22;54366;51.980;5.856;2023-10-09T04:43:35;16.10;84.30
67529;DHT22;54366;51.980;5.856;2023-10-09T04:46:01;16.10;84.10
67529;DHT22;54366;51.980;5.856;2023-10-09T04:48:44;16.10;84.00
67529;DHT22;54366;51.980;5.856;2023-10-09T04:51:14;16.20;84.00
67529;DHT22;54366;51.980;5.856;2023-10-09T04:53:47;16.20;84.00
67529;DHT22;54366;51.980;5.856;2023-10-09T04:56:26;16.30;84.00
67529;DHT22;54366;51.980;5.856;2023-10-09T04:58:57;16.20;84.10
67529;DHT22;54366;51.980;5.856;2023-10-09T05:01:30;16.30;84.00
67529;DHT22;54366;51.980;5.856;2023-10-09T05:04:09;16.30;84.10
67529;DHT22;54366;51.980;5.856;2023-10-09T05:06:52;16.30;84.00
67529;DHT22;54366;51.980;5.856;2023-10-09T05:09:22;16.40;84.10
67529;DHT22;54366;51.980;5.856;2023-10-09T05:11:50;16.30;84.10
67529;DHT22;54366;51.980;5.856;2023-10-09T05:14:35;16.30;84.20
67529;DHT22;54366;51.980;5.856;2023-10-09T05:17:06;16.30;84.10
67529;DHT22;54366;51.980;5.856;2023-10-09T05:19:35;16.30;84.20
67529;DHT22;54366;51.980;5.856;2023-10-09T05:22:20;16.30;84.30
67529;DHT22;54366;51.980;5.856;2023-10-09T05:24:57;16.30;84.20
67529;DHT22;54366;51.980;5.856;2023-10-09T05:27:26;16.40;84.30
67529;DHT22;54366;51.980;5.856;2023-10-09T05:30:12;16.30;84.20
67529;DHT22;54366;51.980;5.856;2023-10-09T05:32:52;16.40;84.20
67529;DHT22;54366;51.980;5.856;2023-10-09T05:35:22;16.40;84.30
67529;DHT22;54366;51.980;5.856;2023-10-09T05:37:56;16.40;84.30
67529;DHT22;54366;51.980;5.856;2023-10-09T05:40:30;16.40;84.40
67529;DHT22;54366;51.980;5.856;2023-10-09T05:43:01;16.40;84.60
67529;DHT22;54366;51.980;5.856;2023-10-09T05:45:29;16.40;84.60
67529;DHT22;54366;51.980;5.856;2023-10-09T05:48:30;16.40;84.60
67529;DHT22;54366;51.980;5.856;2023-10-09T05:51:16;16.50;84.50
67529;DHT22;54366;51.980;5.856;2023-10-09T05:54:05;16.50;84.40
67529;DHT22;54366;51.980;5.856;2023-10-09T05:56:49;16.50;84.30
67529;DHT22;54366;51.980;5.856;2023-10-09T05:59:34;16.50;84.40
67529;DHT22;54366;51.980;5.856;2023-10-09T06:02:24;16.60;84.50
67529;DHT22;54366;51.980;5.856;2023-10-09T06:05:08;16.60;84.50
67529;DHT22;54366;51.980;5.856;2023-10-09T06:07:55;16.60;84.40
67529;DHT22;54366;51.980;5.856;2023-10-09T06:10:33;16.60;84.50
67529;DHT22;54366;51.980;5.856;2023-10-09T06:13:08;16.60;84.60
67529;DHT22;54366;51.980;5.856;2023-10-09T06:15:52;16.60;84.60
67529;DHT22;54366;51.980;5.856;2023-10-09T06:18:35;16.60;84.50
67529;DHT22;54366;51.980;5.856;2023-10-09T06:21:01;16.70;84.50
67529;DHT22;54366;51.980;5.856;2023-10-09T06:23:50;16.70;84.50
67529;DHT22;54366;51.980;5.856;2023-10-09T06:26:36;16.70;84.50
67529;DHT22;54366;51.980;5.856;2023-10-09T06:29:02;16.80;84.50
67529;DHT22;54366;51.980;5.856;2023-10-09T06:31:40;16.80;84.50
67529;DHT22;54366;51.980;5.856;2023-10-09T06:34:33;16.80;84.40
67529;DHT22;54366;51.980;5.856;2023-10-09T06:37:01;16.80;84.40
67529;DHT22;54366;51.980;5.856;2023-10-09T06:39:44;16.80;84.40
67529;DHT22;54366;51.980;5.856;2023-10-09T06:42:16;16.80;84.50
67529;DHT22;54366;51.980;5.856;2023-10-09T06:45:06;16.80;84.60
67529;DHT22;54366;51.980;5.856;2023-10-09T06:47:34;16.80;84.70
67529;DHT22;54366;51.980;5.856;2023-10-09T06:50:24;16.90;84.70
67529;DHT22;54366;51.980;5.856;2023-10-09T06:52:54;16.80;84.70
67529;DHT22;54366;51.980;5.856;2023-10-09T06:55:55;16.90;84.80
67529;DHT22;54366;51.980;5.856;2023-10-09T06:58:31;16.90;84.80
67529;DHT22;54366;51.980;5.856;2023-10-09T07:01:08;16.90;84.90
67529;DHT22;54366;51.980;5.856;2023-10-09T07:03:57;16.90;85.00
67529;DHT22;54366;51.980;5.856;2023-10-09T07:06:36;16.90;84.90
67529;DHT22;54366;51.980;5.856;2023-10-09T07:09:15;16.90;85.00
67529;DHT22;54366;51.980;5.856;2023-10-09T07:11:43;16.90;85.00
67529;DHT22;54366;51.980;5.856;2023-10-09T07:14:30;16.90;85.10
67529;DHT22;54366;51.980;5.856;2023-10-09T07:17:17;16.90;85.20
67529;DHT22;54366;51.980;5.856;2023-10-09T07:20:08;17.00;85.20
67529;DHT22;54366;51.980;5.856;2023-10-09T07:22:40;17.00;85.10
67529;DHT22;54366;51.980;5.856;2023-10-09T07:25:19;17.00;85.00
67529;DHT22;54366;51.980;5.856;2023-10-09T07:28:04;17.00;85.10
67529;DHT22;54366;51.980;5.856;2023-10-09T07:30:47;17.00;85.10
67529;DHT22;54366;51.980;5.856;2023-10-09T07:33:13;17.00;85.10
67529;DHT22;54366;51.980;5.856;2023-10-09T07:35:48;17.10;85.10
67529;DHT22;54366;51.980;5.856;2023-10-09T07:38:24;17.10;85.10
67529;DHT22;54366;51.980;5.856;2023-10-09T07:40:55;17.10;85.10
67529;DHT22;54366;51.980;5.856;2023-10-09T07:43:23;17.10;85.10
67529;DHT22;54366;51.980;5.856;2023-10-09T07:45:55;17.20;85.10
67529;DHT22;54366;51.980;5.856;2023-10-09T07:48:45;17.20;85.00
67529;DHT22;54366;51.980;5.856;2023-10-09T07:51:21;17.20;85.10
67529;DHT22;54366;51.980;5.856;2023-10-09T07:53:52;17.20;85.00
67529;DHT22;54366;51.980;5.856;2023-10-09T07:56:33;17.20;85.00
67529;DHT22;54366;51.980;5.856;2023-10-09T07:59:07;17.30;85.10
67529;DHT22;54366;51.980;5.856;2023-10-09T08:01:41;17.30;85.10
67529;DHT22;54366;51.980;5.856;2023-10-09T08:04:40;17.30;85.00
67529;DHT22;54366;51.980;5.856;2023-10-09T08:07:16;17.30;85.00
67529;DHT22;54366;51.980;5.856;2023-10-09T08:09:46;17.40;85.70
67529;DHT22;54366;51.980;5.856;2023-10-09T08:12:16;17.40;85.10
67529;DHT22;54366;51.980;5.856;2023-10-09T08:15:02;17.50;85.20
67529;DHT22;54366;51.980;5.856;2023-10-09T08:17:56;17.50;85.10
67529;DHT22;54366;51.980;5.856;2023-10-09T08:20:30;17.50;85.00
67529;DHT22;54366;51.980;5.856;2023-10-09T08:23:17;17.60;85.00
67529;DHT22;54366;51.980;5.856;2023-10-09T08:26:09;17.60;84.90
67529;DHT22;54366;51.980;5.856;2023-10-09T08:28:54;17.70;84.90
67529;DHT22;54366;51.980;5.856;2023-10-09T08:31:21;17.70;84.80
67529;DHT22;54366;51.980;5.856;2023-10-09T08:34:23;17.80;84.80
67529;DHT22;54366;51.980;5.856;2023-10-09T08:36:53;17.90;85.20
67529;DHT22;54366;51.980;5.856;2023-10-09T08:39:20;17.90;85.00
67529;DHT22;54366;51.980;5.856;2023-10-09T08:41:54;17.90;85.00
67529;DHT22;54366;51.980;5.856;2023-10-09T08:44:27;17.90;84.90
67529;DHT22;54366;51.980;5.856;2023-10-09T08:46:57;17.90;84.90
67529;DHT22;54366;51.980;5.856;2023-10-09T08:49:26;18.00;84.90
67529;DHT22;54366;51.980;5.856;2023-10-09T08:51:53;18.00;84.80
67529;DHT22;54366;51.980;5.856;2023-10-09T08:54:20;18.10;84.90
67529;DHT22;54366;51.980;5.856;2023-10-09T08:56:47;18.20;84.90
67529;DHT22;54366;51.980;5.856;2023-10-09T08:59:17;18.20;85.00
67529;DHT22;54366;51.980;5.856;2023-10-09T09:01:47;18.20;84.90
67529;DHT22;54366;51.980;5.856;2023-10-09T09:04:40;18.30;85.00
67529;DHT22;54366;51.980;5.856;2023-10-09T09:07:27;18.30;85.20
67529;DHT22;54366;51.980;5.856;2023-10-09T09:10:05;18.30;85.00
67529;DHT22;54366;51.980;5.856;2023-10-09T09:12:47;18.50;85.10
67529;DHT22;54366;51.980;5.856;2023-10-09T09:15:19;18.50;85.00
67529;DHT22;54366;51.980;5.856;2023-10-09T09:17:47;18.50;85.10
67529;DHT22;54366;51.980;5.856;2023-10-09T09:20:25;18.60;85.20
67529;DHT22;54366;51.980;5.856;2023-10-09T09:23:10;18.60;85.10
67529;DHT22;54366;51.980;5.856;2023-10-09T09:25:45;18.70;85.10
67529;DHT22;54366;51.980;5.856;2023-10-09T09:28:17;18.70;84.90
67529;DHT22;54366;51.980;5.856;2023-10-09T09:30:47;18.80;84.90
67529;DHT22;54366;51.980;5.856;2023-10-09T09:33:24;18.80;84.80
67529;DHT22;54366;51.980;5.856;2023-10-09T09:36:00;18.80;84.80
67529;DHT22;54366;51.980;5.856;2023-10-09T09:38:32;18.90;85.00
67529;DHT22;54366;51.980;5.856;2023-10-09T09:41:09;19.00;84.90
67529;DHT22;54366;51.980;5.856;2023-10-09T09:43:37;19.00;84.80
67529;DHT22;54366;51.980;5.856;2023-10-09T09:46:11;19.00;84.80
67529;DHT22;54366;51.980;5.856;2023-10-09T09:48:38;19.20;84.80
67529;DHT22;54366;51.980;5.856;2023-10-09T09:51:15;19.20;84.70
67529;DHT22;54366;51.980;5.856;2023-10-09T09:53:43;19.30;84.60
67529;DHT22;54366;51.980;5.856;2023-10-09T09:56:18;19.30;84.50
67529;DHT22;54366;51.980;5.856;2023-10-09T09:58:50;19.40;84.40
67529;DHT22;54366;51.980;5.856;2023-10-09T10:01:21;19.40;84.40
67529;DHT22;54366;51.980;5.856;2023-10-09T10:03:59;19.50;84.40
67529;DHT22;54366;51.980;5.856;2023-10-09T10:06:29;19.60;84.10
67529;DHT22;54366;51.980;5.856;2023-10-09T10:08:59;19.60;83.90
67529;DHT22;54366;51.980;5.856;2023-10-09T10:11:45;19.70;83.80
67529;DHT22;54366;51.980;5.856;2023-10-09T10:14:12;19.70;83.70
67529;DHT22;54366;51.980;5.856;2023-10-09T10:17:02;19.80;83.70
67529;DHT22;54366;51.980;5.856;2023-10-09T10:20:00;19.80;83.60
67529;DHT22;54366;51.980;5.856;2023-10-09T10:22:39;19.90;83.60
67529;DHT22;54366;51.980;5.856;2023-10-09T10:25:06;19.90;83.50
67529;DHT22;54366;51.980;5.856;2023-10-09T10:27:35;20.00;83.50
67529;DHT22;54366;51.980;5.856;2023-10-09T10:30:27;20.00;83.00
67529;DHT22;54366;51.980;5.856;2023-10-09T10:32:59;20.10;83.00
67529;DHT22;54366;51.980;5.856;2023-10-09T10:35:43;20.10;83.00
67529;DHT22;54366;51.980;5.856;2023-10-09T10:38:32;20.20;82.40
67529;DHT22;54366;51.980;5.856;2023-10-09T10:41:10;20.20;82.30
67529;DHT22;54366;51.980;5.856;2023-10-09T10:43:40;20.20;82.10
67529;DHT22;54366;51.980;5.856;2023-10-09T10:46:16;20.30;82.80
67529;DHT22;54366;51.980;5.856;2023-10-09T10:49:07;20.30;81.90
67529;DHT22;54366;51.980;5.856;2023-10-09T10:51:43;20.30;82.10
67529;DHT22;54366;51.980;5.856;2023-10-09T10:54:22;20.30;82.00
67529;DHT22;54366;51.980;5.856;2023-10-09T10:57:20;20.40;82.00
67529;DHT22;54366;51.980;5.856;2023-10-09T10:59:58;20.40;82.00
67529;DHT22;54366;51.980;5.856;2023-10-09T11:02:39;20.50;82.00
67529;DHT22;54366;51.980;5.856;2023-10-09T11:05:07;20.60;82.10
67529;DHT22;54366;51.980;5.856;2023-10-09T11:07:57;20.60;81.70
67529;DHT22;54366;51.980;5.856;2023-10-09T11:10:24;20.80;81.70
67529;DHT22;54366;51.980;5.856;2023-10-09T11:12:54;20.80;81.40
67529;DHT22;54366;51.980;5.856;2023-10-09T11:15:34;20.90;81.20
67529;DHT22;54366;51.980;5.856;2023-10-09T11:18:12;21.00;81.20
67529;DHT22;54366;51.980;5.856;2023-10-09T11:20:53;21.00;80.80
67529;DHT22;54366;51.980;5.856;2023-10-09T11:23:23;21.00;80.20
67529;DHT22;54366;51.980;5.856;2023-10-09T11:26:13;21.10;79.70
67529;DHT22;54366;51.980;5.856;2023-10-09T11:29:12;21.10;79.90
67529;DHT22;54366;51.980;5.856;2023-10-09T11:32:05;21.20;79.90
67529;DHT22;54366;51.980;5.856;2023-10-09T11:34:33;21.20;80.10
67529;DHT22;54366;51.980;5.856;2023-10-09T11:37:14;21.20;80.10
67529;DHT22;54366;51.980;5.856;2023-10-09T11:39:58;21.30;80.10
67529;DHT22;54366;51.980;5.856;2023-10-09T11:42:28;21.40;79.10
67529;DHT22;54366;51.980;5.856;2023-10-09T11:45:26;21.40;79.20
67529;DHT22;54366;51.980;5.856;2023-10-09T11:47:57;21.60;79.00
67529;DHT22;54366;51.980;5.856;2023-10-09T11:50:57;21.60;78.10
67529;DHT22;54366;51.980;5.856;2023-10-09T11:53:46;21.60;78.20
67529;DHT22;54366;51.980;5.856;2023-10-09T11:56:16;21.80;77.30
67529;DHT22;54366;51.980;5.856;2023-10-09T11:58:49;21.80;76.90
67529;DHT22;54366;51.980;5.856;2023-10-09T12:01:19;21.80;77.40
67529;DHT22;54366;51.980;5.856;2023-10-09T12:03:52;21.80;76.50
67529;DHT22;54366;51.980;5.856;2023-10-09T12:06:20;21.80;77.10
67529;DHT22;54366;51.980;5.856;2023-10-09T12:08:50;21.80;77.60
67529;DHT22;54366;51.980;5.856;2023-10-09T12:11:16;21.90;77.80
67529;DHT22;54366;51.980;5.856;2023-10-09T12:13:55;21.90;77.70
67529;DHT22;54366;51.980;5.856;2023-10-09T12:16:26;22.00;77.10
67529;DHT22;54366;51.980;5.856;2023-10-09T12:18:59;22.00;76.80
67529;DHT22;54366;51.980;5.856;2023-10-09T12:21:25;22.00;76.80
67529;DHT22;54366;51.980;5.856;2023-10-09T12:23:54;22.00;76.80
67529;DHT22;54366;51.980;5.856;2023-10-09T12:26:23;22.00;77.00
67529;DHT22;54366;51.980;5.856;2023-10-09T12:28:50;22.00;77.30
67529;DHT22;54366;51.980;5.856;2023-10-09T12:31:17;22.10;76.90
67529;DHT22;54366;51.980;5.856;2023-10-09T12:33:46;22.10;76.80
67529;DHT22;54366;51.980;5.856;2023-10-09T12:36:13;22.10;76.40
67529;DHT22;54366;51.980;5.856;2023-10-09T12:38:49;22.10;76.10
67529;DHT22;54366;51.980;5.856;2023-10-09T12:41:19;22.10;76.20
67529;DHT22;54366;51.980;5.856;2023-10-09T12:43:55;22.10;75.90
67529;DHT22;54366;51.980;5.856;2023-10-09T12:46:21;22.10;76.00
67529;DHT22;54366;51.980;5.856;2023-10-09T12:48:54;22.00;75.80
67529;DHT22;54366;51.980;5.856;2023-10-09T12:51:22;22.00;75.90
67529;DHT22;54366;51.980;5.856;2023-10-09T12:53:55;22.00;76.20
67529;DHT22;54366;51.980;5.856;2023-10-09T12:56:28;21.90;75.90
67529;DHT22;54366;51.980;5.856;2023-10-09T12:59:03;21.90;76.00
67529;DHT22;54366;51.980;5.856;2023-10-09T13:01:33;21.90;76.30
67529;DHT22;54366;51.980;5.856;2023-10-09T13:04:10;21.90;76.50
67529;DHT22;54366;51.980;5.856;2023-10-09T13:06:40;21.90;76.60
67529;DHT22;54366;51.980;5.856;2023-10-09T13:09:19;21.80;76.60
67529;DHT22;54366;51.980;5.856;2023-10-09T13:11:51;21.80;76.40
67529;DHT22;54366;51.980;5.856;2023-10-09T13:14:17;21.90;76.70
67529;DHT22;54366;51.980;5.856;2023-10-09T13:16:48;21.80;76.50
67529;DHT22;54366;51.980;5.856;2023-10-09T13:19:19;21.80;76.30
67529;DHT22;54366;51.980;5.856;2023-10-09T13:21:45;21.80;76.60
67529;DHT22;54366;51.980;5.856;2023-10-09T13:24:12;21.80;76.70
67529;DHT22;54366;51.980;5.856;2023-10-09T13:26:50;21.80;76.80
67529;DHT22;54366;51.980;5.856;2023-10-09T13:29:24;21.80;76.80
67529;DHT22;54366;51.980;5.856;2023-10-09T13:31:50;21.70;76.60
67529;DHT22;54366;51.980;5.856;2023-10-09T13:34:24;21.70;76.70
67529;DHT22;54366;51.980;5.856;2023-10-09T13:36:54;21.70;76.80
67529;DHT22;54366;51.980;5.856;2023-10-09T13:39:21;21.70;76.90
67529;DHT22;54366;51.980;5.856;2023-10-09T13:41:55;21.60;76.70
67529;DHT22;54366;51.980;5.856;2023-10-09T13:44:29;21.70;76.30
67529;DHT22;54366;51.980;5.856;2023-10-09T13:46:56;21.70;76.00
67529;DHT22;54366;51.980;5.856;2023-10-09T13:49:22;21.60;76.30
67529;DHT22;54366;51.980;5.856;2023-10-09T13:51:49;21.60;76.50
67529;DHT22;54366;51.980;5.856;2023-10-09T13:54:16;21.60;76.60
67529;DHT22;54366;51.980;5.856;2023-10-09T13:56:48;21.50;75.60
67529;DHT22;54366;51.980;5.856;2023-10-09T13:59:20;21.50;76.70
67529;DHT22;54366;51.980;5.856;2023-10-09T14:01:49;21.40;76.30
67529;DHT22;54366;51.980;5.856;2023-10-09T14:04:15;21.50;76.50
67529;DHT22;54366;51.980;5.856;2023-10-09T14:06:45;21.50;76.50
67529;DHT22;54366;51.980;5.856;2023-10-09T14:09:11;21.50;76.70
67529;DHT22;54366;51.980;5.856;2023-10-09T14:12:00;21.40;76.80
67529;DHT22;54366;51.980;5.856;2023-10-09T14:14:35;21.50;76.90
67529;DHT22;54366;51.980;5.856;2023-10-09T14:17:07;21.50;76.90
67529;DHT22;54366;51.980;5.856;2023-10-09T14:19:43;21.50;76.90
67529;DHT22;54366;51.980;5.856;2023-10-09T14:22:17;21.50;76.90
67529;DHT22;54366;51.980;5.856;2023-10-09T14:24:48;21.50;76.80
67529;DHT22;54366;51.980;5.856;2023-10-09T14:27:23;21.50;76.80
67529;DHT22;54366;51.980;5.856;2023-10-09T14:29:54;21.50;76.80
67529;DHT22;54366;51.980;5.856;2023-10-09T14:32:25;21.60;76.90
67529;DHT22;54366;51.980;5.856;2023-10-09T14:34:55;21.60;77.00
67529;DHT22;54366;51.980;5.856;2023-10-09T14:37:30;21.50;76.60
67529;DHT22;54366;51.980;5.856;2023-10-09T14:39:57;21.50;76.80
67529;DHT22;54366;51.980;5.856;2023-10-09T14:42:24;21.50;76.90
67529;DHT22;54366;51.980;5.856;2023-10-09T14:44:53;21.50;77.00
67529;DHT22;54366;51.980;5.856;2023-10-09T14:47:21;21.50;77.10
67529;DHT22;54366;51.980;5.856;2023-10-09T14:49:48;21.50;77.20
67529;DHT22;54366;51.980;5.856;2023-10-09T14:52:14;21.50;77.20
67529;DHT22;54366;51.980;5.856;2023-10-09T14:54:45;21.50;77.20
67529;DHT22;54366;51.980;5.856;2023-10-09T14:57:12;21.50;77.20
67529;DHT22;54366;51.980;5.856;2023-10-09T14:59:39;21.40;77.00
67529;DHT22;54366;51.980;5.856;2023-10-09T15:02:06;21.40;77.00
67529;DHT22;54366;51.980;5.856;2023-10-09T15:04:33;21.40;77.20
67529;DHT22;54366;51.980;5.856;2023-10-09T15:07:05;21.40;77.10
67529;DHT22;54366;51.980;5.856;2023-10-09T15:09:35;21.50;77.00
67529;DHT22;54366;51.980;5.856;2023-10-09T15:12:07;21.40;77.00
67529;DHT22;54366;51.980;5.856;2023-10-09T15:14:33;21.40;77.10
67529;DHT22;54366;51.980;5.856;2023-10-09T15:17:00;21.50;77.20
67529;DHT22;54366;51.980;5.856;2023-10-09T15:19:26;21.40;77.10
67529;DHT22;54366;51.980;5.856;2023-10-09T15:21:57;21.40;77.00
67529;DHT22;54366;51.980;5.856;2023-10-09T15:24:25;21.50;77.20
67529;DHT22;54366;51.980;5.856;2023-10-09T15:26:53;21.40;77.00
67529;DHT22;54366;51.980;5.856;2023-10-09T15:29:24;21.50;77.10
67529;DHT22;54366;51.980;5.856;2023-10-09T15:31:55;21.40;77.10
67529;DHT22;54366;51.980;5.856;2023-10-09T15:34:21;21.40;77.20
67529;DHT22;54366;51.980;5.856;2023-10-09T15:36:47;21.50;77.20
67529;DHT22;54366;51.980;5.856;2023-10-09T15:39:14;21.40;76.90
67529;DHT22;54366;51.980;5.856;2023-10-09T15:41:46;21.40;77.10
67529;DHT22;54366;51.980;5.856;2023-10-09T15:44:12;21.40;77.10
67529;DHT22;54366;51.980;5.856;2023-10-09T15:46:42;21.30;77.10
67529;DHT22;54366;51.980;5.856;2023-10-09T15:49:11;21.30;77.20
67529;DHT22;54366;51.980;5.856;2023-10-09T15:51:40;21.30;77.30
67529;DHT22;54366;51.980;5.856;2023-10-09T15:54:06;21.30;77.40
67529;DHT22;54366;51.980;5.856;2023-10-09T15:56:36;21.30;77.40
67529;DHT22;54366;51.980;5.856;2023-10-09T15:59:05;21.30;77.40
67529;DHT22;54366;51.980;5.856;2023-10-09T16:01:32;21.20;77.30
67529;DHT22;54366;51.980;5.856;2023-10-09T16:03:58;21.20;77.30
67529;DHT22;54366;51.980;5.856;2023-10-09T16:06:26;21.20;77.40
67529;DHT22;54366;51.980;5.856;2023-10-09T16:08:57;21.10;77.00
67529;DHT22;54366;51.980;5.856;2023-10-09T16:11:23;21.00;76.80
67529;DHT22;54366;51.980;5.856;2023-10-09T16:13:50;21.00;76.70